Time;durP1;ratioP1;P1;durP2;ratioP2;P2;SDS_P1;SDS_P2;PMS_P1;PMS_P2;Temp;Humidity;BMP_temperature;BMP_pressure;BME280_temperature;BME280_humidity;BME280_pressure;Samples;Min_cycle;Max_cycle;Signal;HPM_P1;HPM_P2
2023/10/16 00:01:06;;;;;;;;;;;;;;;;;;4986687;28;90721;-63
2023/10/16 00:03:31;;;;;;;;;;;;;;;;;;4976877;28;91840;-65
2023/10/16 00:05:56;;;;;;;;;;;;;;;;;;4985703;28;89991;-63
2023/10/16 00:08:22;;;;;;;;;;;;;;;;;;4986626;28;89560;-66
2023/10/16 00:11:01;;;;;;;;;;;;;;;;;;4985865;28;89552;-64
2023/10/16 00:13:29;;;;;;;;;;;;;;;;;;4988469;28;89758;-64
2023/10/16 00:15:55;;;;;;;;;;;;;;;;;;4985308;28;89239;-65
2023/10/16 00:18:24;;;;;;;;;;;;;;;;;;4986572;28;91189;-66
2023/10/16 00:20:55;;;;;;;;;;;;;;;;;;4986240;28;91094;-64
2023/10/16 00:23:24;;;;;;;;;;;;;;;;;;4986032;28;89562;-63
2023/10/16 00:25:50;;;;;;;;;;;;;;;;;;4986719;28;89606;-64
2023/10/16 00:28:18;;;;;;;;;;;;;;;;;;4985736;28;90801;-64
2023/10/16 00:30:43;;;;;;;;;;;;;;;;;;4985502;28;90225;-64
2023/10/16 00:33:10;;;;;;;;;;;;;;;;;;4986825;28;90024;-64
2023/10/16 00:35:37;;;;;;;;;;;;;;;;;;4989606;28;90675;-66
2023/10/16 00:38:03;;;;;;;;;;;;;;;;;;4985718;28;89624;-63
2023/10/16 00:40:31;;;;;;;;;;;;;;;;;;4985599;28;91711;-63
2023/10/16 00:42:59;;;;;;;;;;;;;;;;;;4986147;28;89534;-65
2023/10/16 00:45:24;;;;;;;;;;;;;;;;;;4985885;28;89640;-64
2023/10/16 00:47:49;;;;;;;;;;;;;;;;;;4986029;28;89701;-63
2023/10/16 00:50:14;;;;;;;;;;;;;;;;;;4985615;28;90126;-64
2023/10/16 00:52:42;;;;;;;;;;;;;;;;;;4985741;28;89117;-64
2023/10/16 00:55:11;;;;;;;;;;;;;;;;;;4986295;28;89825;-64
2023/10/16 00:57:37;;;;;;;;;;;;;;;;;;4989465;28;89707;-63
2023/10/16 01:00:12;;;;;;;;;;;;;;;;;;4985615;28;90255;-66
2023/10/16 01:02:40;;;;;;;;;;;;;;;;;;4986716;28;90933;-65
2023/10/16 01:05:07;;;;;;;;;;;;;;;;;;4984026;28;89845;-64
2023/10/16 01:07:33;;;;;;;;;;;;;;;;;;4985071;28;89604;-64
2023/10/16 01:09:59;;;;;;;;;;;;;;;;;;4985830;28;90205;-64
2023/10/16 01:12:25;;;;;;;;;;;;;;;;;;4985408;28;90566;-66
2023/10/16 01:14:50;;;;;;;;;;;;;;;;;;4985476;28;89607;-67
2023/10/16 01:17:17;;;;;;;;;;;;;;;;;;4986158;28;91079;-66
2023/10/16 01:19:46;;;;;;;;;;;;;;;;;;4988813;28;90213;-66
2023/10/16 01:22:11;;;;;;;;;;;;;;;;;;4985348;28;90132;-64
2023/10/16 01:24:43;;;;;;;;;;;;;;;;;;4984705;28;89565;-66
2023/10/16 01:27:14;;;;;;;;;;;;;;;;;;4985854;28;90534;-64
2023/10/16 01:29:40;;;;;;;;;;;;;;;;;;4984661;28;90003;-65
2023/10/16 01:32:05;;;;;;;;;;;;;;;;;;4984406;28;89872;-63
2023/10/16 01:34:32;;;;;;;;;;;;;;;;;;4984474;28;90622;-64
2023/10/16 01:37:02;;;;;;;;;;;;;;;;;;4983968;28;92105;-65
2023/10/16 01:42:11;;;;;;;;;;;;;;;;;;4986241;28;89053;-64
2023/10/16 01:44:36;;;;;;;;;;;;;;;;;;4984855;28;89523;-65
2023/10/16 01:47:03;;;;;;;;;;;;;;;;;;4984423;28;89241;-63
2023/10/16 01:49:28;;;;;;;;;;;;;;;;;;4983568;28;89284;-64
2023/10/16 01:51:55;;;;;;;;;;;;;;;;;;4985033;28;89572;-63
2023/10/16 01:54:22;;;;;;;;;;;;;;;;;;4983957;28;89924;-63
2023/10/16 01:56:49;;;;;;;;;;;;;;;;;;4985140;28;89867;-64
2023/10/16 01:59:14;;;;;;;;;;;;;;;;;;4985311;28;89088;-63
2023/10/16 02:01:41;;;;;;;;;;;;;;;;;;4987600;28;91759;-64
2023/10/16 02:04:06;;;;;;;;;;;;;;;;;;4982969;28;89967;-64
2023/10/16 02:06:31;;;;;;;;;;;;;;;;;;4984523;28;90891;-64
2023/10/16 02:08:56;;;;;;;;;;;;;;;;;;4984767;28;90179;-63
2023/10/16 02:11:22;;;;;;;;;;;;;;;;;;4985292;28;89436;-64
2023/10/16 02:13:48;;;;;;;;;;;;;;;;;;4984138;28;89866;-66
2023/10/16 02:16:15;;;;;;;;;;;;;;;;;;4985318;28;89666;-64
2023/10/16 02:18:40;;;;;;;;;;;;;;;;;;4984368;28;89658;-66
2023/10/16 02:21:06;;;;;;;;;;;;;;;;;;4966958;28;92841;-65
2023/10/16 02:23:32;;;;;;;;;;;;;;;;;;4987909;28;89586;-63
2023/10/16 02:26:01;;;;;;;;;;;;;;;;;;4985182;28;90915;-64
2023/10/16 02:28:26;;;;;;;;;;;;;;;;;;4984991;28;90282;-64
2023/10/16 02:30:51;;;;;;;;;;;;;;;;;;4984514;28;90028;-64
2023/10/16 02:33:26;;;;;;;;;;;;;;;;;;4984146;28;89396;-65
2023/10/16 02:35:53;;;;;;;;;;;;;;;;;;4984386;28;90145;-64
2023/10/16 02:38:27;;;;;;;;;;;;;;;;;;4984660;28;89009;-66
2023/10/16 02:40:53;;;;;;;;;;;;;;;;;;4984210;28;90089;-64
2023/10/16 02:43:20;;;;;;;;;;;;;;;;;;4984028;28;89241;-64
2023/10/16 02:45:52;;;;;;;;;;;;;;;;;;4986599;28;89632;-64
2023/10/16 02:48:18;;;;;;;;;;;;;;;;;;4984065;28;89458;-65
2023/10/16 02:50:56;;;;;;;;;;;;;;;;;;4984260;28;89612;-64
2023/10/16 02:53:23;;;;;;;;;;;;;;;;;;4984370;28;89804;-63
2023/10/16 02:55:58;;;;;;;;;;;;;;;;;;4965623;28;92309;-66
2023/10/16 02:58:26;;;;;;;;;;;;;;;;;;4980071;28;90564;-64
2023/10/16 03:01:06;;;;;;;;;;;;;;;;;;4985340;28;90670;-64
2023/10/16 03:03:31;;;;;;;;;;;;;;;;;;4987755;28;90321;-64
2023/10/16 03:05:58;;;;;;;;;;;;;;;;;;4987910;28;89767;-65
2023/10/16 03:08:29;;;;;;;;;;;;;;;;;;4990410;28;89538;-65
2023/10/16 03:11:05;;;;;;;;;;;;;;;;;;4987630;28;89084;-68
2023/10/16 03:13:33;;;;;;;;;;;;;;;;;;4986102;28;90738;-63
2023/10/16 03:16:05;;;;;;;;;;;;;;;;;;4987273;28;89740;-63
2023/10/16 03:18:30;;;;;;;;;;;;;;;;;;4987326;28;89327;-63
2023/10/16 03:23:41;;;;;;;;;;;;;;;;;;4987082;28;89137;-64
2023/10/16 03:26:08;;;;;;;;;;;;;;;;;;4985063;28;89375;-64
2023/10/16 03:28:34;;;;;;;;;;;;;;;;;;4987620;28;90930;-65
2023/10/16 03:31:02;;;;;;;;;;;;;;;;;;4989572;28;90378;-64
2023/10/16 03:33:27;;;;;;;;;;;;;;;;;;4986214;28;90574;-65
2023/10/16 03:35:52;;;;;;;;;;;;;;;;;;4986542;28;89784;-64
2023/10/16 03:38:24;;;;;;;;;;;;;;;;;;4986556;28;89994;-66
2023/10/16 03:40:51;;;;;;;;;;;;;;;;;;4986922;28;90716;-66
2023/10/16 03:43:18;;;;;;;;;;;;;;;;;;4986073;28;89540;-64
2023/10/16 03:45:43;;;;;;;;;;;;;;;;;;4985022;28;89456;-65
2023/10/16 03:48:10;;;;;;;;;;;;;;;;;;4985669;28;89857;-67
2023/10/16 03:50:39;;;;;;;;;;;;;;;;;;4988476;28;89136;-64
2023/10/16 03:53:08;;;;;;;;;;;;;;;;;;4985568;28;90441;-63
2023/10/16 03:55:49;;;;;;;;;;;;;;;;;;4984672;28;90223;-64
2023/10/16 03:58:16;;;;;;;;;;;;;;;;;;4985192;28;89047;-65
2023/10/16 04:00:52;;;;;;;;;;;;;;;;;;4985141;28;89673;-64
2023/10/16 04:03:18;;;;;;;;;;;;;;;;;;4986260;28;89583;-66
2023/10/16 04:05:47;;;;;;;;;;;;;;;;;;4985686;28;89677;-63
2023/10/16 04:08:14;;;;;;;;;;;;;;;;;;4985242;28;90557;-65
2023/10/16 04:10:48;;;;;;;;;;;;;;;;;;4985595;28;89915;-65
2023/10/16 04:13:18;;;;;;;;;;;;;;;;;;4985627;28;90688;-64
2023/10/16 04:21:37;;;;;;;;;;;;;;;;;;4985876;28;89559;-64
2023/10/16 04:47:47;;;;;;;;;;;;;;;;;;4984804;28;89350;-66
2023/10/16 04:50:14;;;;;;;;;;;;;;;;;;4984576;28;90892;-66
2023/10/16 06:14:11;;;;;;;;;;;;;;;;;;4986143;28;89444;-63
2023/10/16 06:16:40;;;;;;;;;;;;;;;;;;4983202;28;89834;-64
2023/10/16 06:19:07;;;;;;;;;;;;;;;;;;4983709;28;90117;-67
2023/10/16 06:21:33;;;;;;;;;;;;;;;;;;4979451;28;89822;-64
2023/10/16 06:23:59;;;;;;;;;;;;;;;;;;4980930;28;90228;-66
2023/10/16 06:26:27;;;;;;;;;;;;;;;;;;4981109;28;89094;-67
2023/10/16 06:28:52;;;;;;;;;;;;;;;;;;4983230;28;90361;-68
2023/10/16 06:31:23;;;;;;;;;;;;;;;;;;4983300;28;89739;-63
2023/10/16 06:33:58;;;;;;;;;;;;;;;;;;4985124;28;90421;-65
2023/10/16 06:36:28;;;;;;;;;;;;;;;;;;4985634;28;89412;-65
2023/10/16 06:38:54;;;;;;;;;;;;;;;;;;4989013;28;90687;-66
2023/10/16 06:41:22;;;;;;;;;;;;;;;;;;4988012;28;89716;-64
2023/10/16 06:43:48;;;;;;;;;;;;;;;;;;4987805;28;91112;-64
2023/10/16 06:46:21;;;;;;;;;;;;;;;;;;4987339;28;89867;-66
2023/10/16 06:48:48;;;;;;;;;;;;;;;;;;4987170;28;89053;-64
2023/10/16 06:51:15;;;;;;;;;;;;;;;;;;4987121;28;89046;-67
2023/10/16 06:53:40;;;;;;;;;;;;;;;;;;4986876;28;89534;-67
2023/10/16 06:56:05;;;;;;;;;;;;;;;;;;4988654;28;89375;-65
2023/10/16 06:58:34;;;;;;;;;;;;;;;;;;4985121;28;90523;-65
2023/10/16 07:00:59;;;;;;;;;;;;;;;;;;4986896;28;89553;-64
2023/10/16 07:03:24;;;;;;;;;;;;;;;;;;4986674;28;89590;-65
2023/10/16 07:05:50;;;;;;;;;;;;;;;;;;4986686;28;90182;-66
2023/10/16 07:08:19;;;;;;;;;;;;;;;;;;4986614;28;89712;-65
2023/10/16 07:10:51;;;;;;;;;;;;;;;;;;4986795;28;89769;-63
2023/10/16 07:13:27;;;;;;;;;;;;;;;;;;4985692;28;90299;-63
2023/10/16 07:15:59;;;;;;;;;;;;;;;;;;4987351;28;90323;-64
2023/10/16 07:18:25;;;;;;;;;;;;;;;;;;4989411;28;90711;-65
2023/10/16 07:23:29;;;;;;;;;;;;;;;;;;4986883;28;89631;-63
2023/10/16 07:25:56;;;;;;;;;;;;;;;;;;4986329;28;90534;-64
2023/10/16 07:28:21;;;;;;;;;;;;;;;;;;4986794;28;89210;-65
2023/10/16 07:30:46;;;;;;;;;;;;;;;;;;4989011;28;90874;-65
2023/10/16 07:33:15;;;;;;;;;;;;;;;;;;4986711;28;89902;-63
2023/10/16 07:35:44;;;;;;;;;;;;;;;;;;4986753;28;89703;-64
2023/10/16 07:38:10;;;;;;;;;;;;;;;;;;4986922;28;90735;-64
2023/10/16 07:40:37;;;;;;;;;;;;;;;;;;4989111;28;89597;-64
2023/10/16 07:43:03;;;;;;;;;;;;;;;;;;4987297;28;89528;-66
2023/10/16 07:45:32;;;;;;;;;;;;;;;;;;4986026;28;90609;-64
2023/10/16 07:48:07;;;;;;;;;;;;;;;;;;4984535;28;89512;-67
2023/10/16 07:50:32;;;;;;;;;;;;;;;;;;4982070;28;90801;-64
2023/10/16 07:52:58;;;;;;;;;;;;;;;;;;4984258;28;89311;-65
2023/10/16 07:55:38;;;;;;;;;;;;;;;;;;4986603;28;90167;-65
2023/10/16 07:58:11;;;;;;;;;;;;;;;;;;4985779;28;90936;-65
2023/10/16 08:00:42;;;;;;;;;;;;;;;;;;4985332;28;90055;-67
2023/10/16 08:03:13;;;;;;;;;;;;;;;;;;4988364;28;89499;-68
2023/10/16 08:05:38;;;;;;;;;;;;;;;;;;4984762;28;90105;-68
2023/10/16 08:08:11;;;;;;;;;;;;;;;;;;4986396;28;90170;-63
2023/10/16 08:10:43;;;;;;;;;;;;;;;;;;4982175;28;90529;-65
2023/10/16 08:13:11;;;;;;;;;;;;;;;;;;4986000;28;90319;-65
2023/10/16 08:15:37;;;;;;;;;;;;;;;;;;4984718;28;89686;-65
2023/10/16 08:18:07;;;;;;;;;;;;;;;;;;4984635;28;90259;-67
2023/10/16 08:20:49;;;;;;;;;;;;;;;;;;4983870;28;90865;-65
2023/10/16 08:23:14;;;;;;;;;;;;;;;;;;5000941;28;90000;-65
2023/10/16 08:25:40;;;;;;;;;;;;;;;;;;4985622;28;89235;-65
2023/10/16 08:28:21;;;;;;;;;;;;;;;;;;4985536;28;89626;-65
2023/10/16 08:33:16;;;;;;;;;;;;;;;;;;4984312;28;89723;-66
2023/10/16 08:35:41;;;;;;;;;;;;;;;;;;4984564;28;89548;-65
2023/10/16 08:38:32;;;;;;;;;;;;;;;;;;4985886;28;90607;-66
2023/10/16 08:40:58;;;;;;;;;;;;;;;;;;4985625;28;91782;-65
2023/10/16 08:46:18;;;;;;;;;;;;;;;;;;4987789;28;89626;-68
2023/10/16 08:48:44;;;;;;;;;;;;;;;;;;4985212;28;89455;-67
2023/10/16 08:51:10;;;;;;;;;;;;;;;;;;4985287;28;90578;-65
2023/10/16 08:53:36;;;;;;;;;;;;;;;;;;4967841;28;90329;-65
2023/10/16 08:56:08;;;;;;;;;;;;;;;;;;4985840;28;89713;-66
2023/10/16 08:58:38;;;;;;;;;;;;;;;;;;4984367;28;90899;-68
2023/10/16 09:01:07;;;;;;;;;;;;;;;;;;4984976;28;90962;-65
2023/10/16 09:03:33;;;;;;;;;;;;;;;;;;4984928;28;89709;-65
2023/10/16 09:06:01;;;;;;;;;;;;;;;;;;4984930;28;89864;-64
2023/10/16 09:08:27;;;;;;;;;;;;;;;;;;4987638;28;90304;-64
2023/10/16 09:10:53;;;;;;;;;;;;;;;;;;4985382;28;90606;-65
2023/10/16 09:13:19;;;;;;;;;;;;;;;;;;4984130;28;89896;-66
2023/10/16 09:15:47;;;;;;;;;;;;;;;;;;4985223;28;89134;-64
2023/10/16 09:18:13;;;;;;;;;;;;;;;;;;4985122;28;90349;-65
2023/10/16 09:20:41;;;;;;;;;;;;;;;;;;4984774;28;90089;-64
2023/10/16 09:23:07;;;;;;;;;;;;;;;;;;4985034;28;89673;-65
2023/10/16 09:25:33;;;;;;;;;;;;;;;;;;4984598;28;90705;-66
2023/10/16 09:27:59;;;;;;;;;;;;;;;;;;4984741;28;90712;-68
2023/10/16 09:30:28;;;;;;;;;;;;;;;;;;4989271;28;89691;-68
2023/10/16 09:32:54;;;;;;;;;;;;;;;;;;4967063;28;89863;-68
2023/10/16 09:35:30;;;;;;;;;;;;;;;;;;4984810;28;89474;-67
2023/10/16 09:38:09;;;;;;;;;;;;;;;;;;4983815;28;90567;-69
2023/10/16 09:40:37;;;;;;;;;;;;;;;;;;4983115;28;90937;-67
2023/10/16 09:43:05;;;;;;;;;;;;;;;;;;4985139;28;90286;-69
2023/10/16 09:45:35;;;;;;;;;;;;;;;;;;4983429;28;90554;-67
2023/10/16 09:48:07;;;;;;;;;;;;;;;;;;4985247;28;90112;-68
2023/10/16 09:50:32;;;;;;;;;;;;;;;;;;4984188;28;89757;-67
2023/10/16 09:52:59;;;;;;;;;;;;;;;;;;4987665;28;90351;-68
2023/10/16 09:55:27;;;;;;;;;;;;;;;;;;4983016;28;89627;-64
2023/10/16 09:57:54;;;;;;;;;;;;;;;;;;4985345;28;89749;-66
2023/10/16 10:00:28;;;;;;;;;;;;;;;;;;4982995;28;89996;-68
2023/10/16 10:02:57;;;;;;;;;;;;;;;;;;4984753;28;88978;-65
2023/10/16 10:05:31;;;;;;;;;;;;;;;;;;4983695;28;89389;-66
2023/10/16 10:07:59;;;;;;;;;;;;;;;;;;4984576;28;90363;-66
2023/10/16 10:13:08;;;;;;;;;;;;;;;;;;4984855;28;89494;-69
2023/10/16 10:15:35;;;;;;;;;;;;;;;;;;4987178;28;89527;-69
2023/10/16 10:18:31;;;;;;;;;;;;;;;;;;4985040;28;92298;-68
2023/10/16 10:20:48;;;;;;;;;;;;;;;;;;4984524;28;90201;-70
2023/10/16 10:23:15;;;;;;;;;;;;;;;;;;4983971;28;89112;-67
2023/10/16 10:25:41;;;;;;;;;;;;;;;;;;4983966;28;91225;-68
2023/10/16 10:28:28;;;;;;;;;;;;;;;;;;4983514;28;90229;-69
2023/10/16 10:31:02;;;;;;;;;;;;;;;;;;4973154;28;90138;-65
2023/10/16 10:33:51;;;;;;;;;;;;;;;;;;4982336;28;91389;-65
2023/10/16 10:36:39;;;;;;;;;;;;;;;;;;4985731;28;90255;-65
2023/10/16 10:39:43;;;;;;;;;;;;;;;;;;4981703;28;89543;-67
2023/10/16 10:42:28;;;;;;;;;;;;;;;;;;4983314;28;90163;-65
2023/10/16 10:47:40;;;;;;;;;;;;;;;;;;4983626;28;90346;-66
2023/10/16 10:50:13;;;;;;;;;;;;;;;;;;4983729;28;90298;-65
2023/10/16 10:52:38;;;;;;;;;;;;;;;;;;4983422;28;89872;-64
2023/10/16 10:55:14;;;;;;;;;;;;;;;;;;4984518;28;90252;-65
2023/10/16 10:57:40;;;;;;;;;;;;;;;;;;4981595;28;89798;-67
2023/10/16 11:02:52;;;;;;;;;;;;;;;;;;4984344;28;89383;-68
2023/10/16 11:05:51;;;;;;;;;;;;;;;;;;4982275;28;90346;-67
2023/10/16 11:10:41;;;;;;;;;;;;;;;;;;4981546;28;89174;-65
2023/10/16 11:13:06;;;;;;;;;;;;;;;;;;4982404;28;89901;-66
2023/10/16 11:15:31;;;;;;;;;;;;;;;;;;4963172;28;92552;-67
2023/10/16 11:18:05;;;;;;;;;;;;;;;;;;4982785;28;89563;-65
2023/10/16 11:20:31;;;;;;;;;;;;;;;;;;4983863;28;89288;-65
2023/10/16 11:22:56;;;;;;;;;;;;;;;;;;4989508;28;89776;-71
2023/10/16 11:25:28;;;;;;;;;;;;;;;;;;5002256;28;89667;-64
2023/10/16 11:27:57;;;;;;;;;;;;;;;;;;4987237;28;89987;-70
2023/10/16 11:30:26;;;;;;;;;;;;;;;;;;4989047;28;90176;-70
2023/10/16 11:32:52;;;;;;;;;;;;;;;;;;4987695;28;89570;-68
2023/10/16 11:35:18;;;;;;;;;;;;;;;;;;4987313;28;89558;-68
2023/10/16 11:37:50;;;;;;;;;;;;;;;;;;4986323;28;90440;-71
2023/10/16 11:40:18;;;;;;;;;;;;;;;;;;4982750;28;89475;-66
2023/10/16 11:42:47;;;;;;;;;;;;;;;;;;4985558;28;89946;-65
2023/10/16 11:45:19;;;;;;;;;;;;;;;;;;4988302;28;90441;-66
2023/10/16 11:47:59;;;;;;;;;;;;;;;;;;4986548;28;90799;-66
2023/10/16 11:50:38;;;;;;;;;;;;;;;;;;4985998;28;90496;-64
2023/10/16 11:53:06;;;;;;;;;;;;;;;;;;4981885;28;89632;-66
2023/10/16 11:55:31;;;;;;;;;;;;;;;;;;4982237;28;89534;-66
2023/10/16 11:57:57;;;;;;;;;;;;;;;;;;4986301;28;89352;-65
2023/10/16 12:00:30;;;;;;;;;;;;;;;;;;4986432;28;90398;-66
2023/10/16 12:02:55;;;;;;;;;;;;;;;;;;4987362;28;89660;-65
2023/10/16 12:05:20;;;;;;;;;;;;;;;;;;4985734;28;89734;-65
2023/10/16 12:07:48;;;;;;;;;;;;;;;;;;4988715;28;89441;-65
2023/10/16 12:10:15;;;;;;;;;;;;;;;;;;4985862;28;90773;-64
2023/10/16 12:12:40;;;;;;;;;;;;;;;;;;4985482;28;89457;-64
2023/10/16 12:15:09;;;;;;;;;;;;;;;;;;4967192;28;92400;-64
2023/10/16 12:17:35;;;;;;;;;;;;;;;;;;4985458;28;90560;-65
2023/10/16 12:20:07;;;;;;;;;;;;;;;;;;4985419;28;89550;-63
2023/10/16 12:22:32;;;;;;;;;;;;;;;;;;4984821;28;90795;-64
2023/10/16 12:24:58;;;;;;;;;;;;;;;;;;4986582;28;89553;-65
2023/10/16 12:27:23;;;;;;;;;;;;;;;;;;4985486;28;89338;-64
2023/10/16 12:29:48;;;;;;;;;;;;;;;;;;4988723;28;89196;-65
2023/10/16 12:32:14;;;;;;;;;;;;;;;;;;4984767;28;89154;-64
2023/10/16 12:34:40;;;;;;;;;;;;;;;;;;4985811;28;89624;-64
2023/10/16 12:37:07;;;;;;;;;;;;;;;;;;4984651;28;91105;-65
2023/10/16 12:39:35;;;;;;;;;;;;;;;;;;4985926;28;89704;-67
2023/10/16 12:42:05;;;;;;;;;;;;;;;;;;4981939;28;89119;-66
2023/10/16 12:44:30;;;;;;;;;;;;;;;;;;4967223;28;92209;-65
2023/10/16 12:46:55;;;;;;;;;;;;;;;;;;4986495;28;89390;-65
2023/10/16 12:49:21;;;;;;;;;;;;;;;;;;4988584;28;89511;-64
2023/10/16 12:51:48;;;;;;;;;;;;;;;;;;4985718;28;89611;-64
2023/10/16 12:54:15;;;;;;;;;;;;;;;;;;4985790;28;89551;-65
2023/10/16 12:56:43;;;;;;;;;;;;;;;;;;4983761;28;90104;-64
2023/10/16 12:59:08;;;;;;;;;;;;;;;;;;4985890;28;89498;-64
2023/10/16 13:01:33;;;;;;;;;;;;;;;;;;4986061;28;90788;-65
2023/10/16 13:04:03;;;;;;;;;;;;;;;;;;4985354;28;90900;-65
2023/10/16 13:06:30;;;;;;;;;;;;;;;;;;4984826;28;90181;-66
2023/10/16 13:08:56;;;;;;;;;;;;;;;;;;4985085;28;89537;-65
2023/10/16 13:11:21;;;;;;;;;;;;;;;;;;4988140;28;90151;-64
2023/10/16 13:13:46;;;;;;;;;;;;;;;;;;4984535;28;89985;-66
2023/10/16 13:16:11;;;;;;;;;;;;;;;;;;4982171;28;89046;-65
2023/10/16 13:18:37;;;;;;;;;;;;;;;;;;4984201;28;89734;-65
2023/10/16 13:21:12;;;;;;;;;;;;;;;;;;4967948;28;93127;-65
2023/10/16 13:23:38;;;;;;;;;;;;;;;;;;4984784;28;90505;-64
2023/10/16 13:26:07;;;;;;;;;;;;;;;;;;4980872;28;89772;-66
2023/10/16 13:28:35;;;;;;;;;;;;;;;;;;4985927;28;90678;-65
2023/10/16 13:31:01;;;;;;;;;;;;;;;;;;4961117;28;90305;-65
2023/10/16 13:33:26;;;;;;;;;;;;;;;;;;4988123;28;89103;-65
2023/10/16 13:35:54;;;;;;;;;;;;;;;;;;4985015;28;89670;-64
2023/10/16 13:38:20;;;;;;;;;;;;;;;;;;4984861;28;90194;-65
2023/10/16 13:40:46;;;;;;;;;;;;;;;;;;4970994;28;89732;-65
2023/10/16 13:43:12;;;;;;;;;;;;;;;;;;4985058;28;90266;-65
2023/10/16 13:45:38;;;;;;;;;;;;;;;;;;4984036;28;91316;-66
2023/10/16 13:48:04;;;;;;;;;;;;;;;;;;4985159;28;89519;-64
2023/10/16 13:50:29;;;;;;;;;;;;;;;;;;4985126;28;90935;-64
2023/10/16 13:52:55;;;;;;;;;;;;;;;;;;4982518;28;89794;-64
2023/10/16 13:55:24;;;;;;;;;;;;;;;;;;4987442;28;91006;-67
2023/10/16 13:57:50;;;;;;;;;;;;;;;;;;4980169;28;89063;-68
2023/10/16 14:00:31;;;;;;;;;;;;;;;;;;4989423;28;90348;-68
2023/10/16 14:02:57;;;;;;;;;;;;;;;;;;4984909;28;89594;-66
2023/10/16 14:05:23;;;;;;;;;;;;;;;;;;4984414;28;89516;-68
2023/10/16 14:07:48;;;;;;;;;;;;;;;;;;4984396;28;89813;-65
2023/10/16 14:10:13;;;;;;;;;;;;;;;;;;4984502;28;89684;-66
2023/10/16 14:12:39;;;;;;;;;;;;;;;;;;4984410;28;90045;-70
2023/10/16 14:15:05;;;;;;;;;;;;;;;;;;4984128;28;91560;-70
2023/10/16 14:17:37;;;;;;;;;;;;;;;;;;4987060;28;89831;-71
2023/10/16 14:20:11;;;;;;;;;;;;;;;;;;4978519;28;90667;-70
2023/10/16 14:22:42;;;;;;;;;;;;;;;;;;4983534;28;90067;-66
2023/10/16 14:25:11;;;;;;;;;;;;;;;;;;4983737;28;90123;-68
2023/10/16 14:27:39;;;;;;;;;;;;;;;;;;4983992;28;89563;-69
2023/10/16 14:30:05;;;;;;;;;;;;;;;;;;4981322;28;90815;-68
2023/10/16 14:32:30;;;;;;;;;;;;;;;;;;4982579;28;89521;-70
2023/10/16 14:34:56;;;;;;;;;;;;;;;;;;4981781;28;90510;-67
2023/10/16 14:37:21;;;;;;;;;;;;;;;;;;4985966;28;89950;-68
2023/10/16 14:39:51;;;;;;;;;;;;;;;;;;4983962;28;90180;-65
2023/10/16 14:42:17;;;;;;;;;;;;;;;;;;4984063;28;89658;-66
2023/10/16 14:44:45;;;;;;;;;;;;;;;;;;4984162;28;89586;-66
2023/10/16 14:47:10;;;;;;;;;;;;;;;;;;4984673;28;91544;-66
2023/10/16 14:49:35;;;;;;;;;;;;;;;;;;4984772;28;89308;-65
2023/10/16 14:52:01;;;;;;;;;;;;;;;;;;4984366;28;89933;-66
2023/10/16 14:54:26;;;;;;;;;;;;;;;;;;4984152;28;90304;-66
2023/10/16 14:56:52;;;;;;;;;;;;;;;;;;4985056;28;90121;-65
2023/10/16 14:59:32;;;;;;;;;;;;;;;;;;4990529;28;91114;-65
2023/10/16 15:01:58;;;;;;;;;;;;;;;;;;5002613;28;89999;-65
2023/10/16 15:04:23;;;;;;;;;;;;;;;;;;4987742;28;89564;-67
2023/10/16 15:06:49;;;;;;;;;;;;;;;;;;4987237;28;91295;-66
2023/10/16 15:09:17;;;;;;;;;;;;;;;;;;4987104;28;90935;-65
2023/10/16 15:11:45;;;;;;;;;;;;;;;;;;4983273;28;89114;-66
2023/10/16 15:14:12;;;;;;;;;;;;;;;;;;4987848;28;90572;-66
2023/10/16 15:16:37;;;;;;;;;;;;;;;;;;4986813;28;89530;-67
2023/10/16 15:19:07;;;;;;;;;;;;;;;;;;4986835;28;90026;-67
2023/10/16 15:21:32;;;;;;;;;;;;;;;;;;4989791;28;89763;-67
2023/10/16 15:23:58;;;;;;;;;;;;;;;;;;4986170;28;89630;-66
2023/10/16 15:26:23;;;;;;;;;;;;;;;;;;4987396;28;90753;-69
2023/10/16 15:28:48;;;;;;;;;;;;;;;;;;4986241;28;89845;-66
2023/10/16 15:31:15;;;;;;;;;;;;;;;;;;4972239;28;89500;-66
2023/10/16 15:33:41;;;;;;;;;;;;;;;;;;4984954;28;89270;-66
2023/10/16 15:36:07;;;;;;;;;;;;;;;;;;4987409;28;89723;-66
2023/10/16 15:38:32;;;;;;;;;;;;;;;;;;4987162;28;89472;-67
2023/10/16 15:41:00;;;;;;;;;;;;;;;;;;4986808;28;90111;-67
2023/10/16 15:43:25;;;;;;;;;;;;;;;;;;4990861;28;89215;-68
2023/10/16 15:45:51;;;;;;;;;;;;;;;;;;4987370;28;89634;-68
2023/10/16 15:48:16;;;;;;;;;;;;;;;;;;4986430;28;89464;-66
2023/10/16 15:50:42;;;;;;;;;;;;;;;;;;4986970;28;89286;-65
2023/10/16 15:53:07;;;;;;;;;;;;;;;;;;4987990;28;91117;-66
2023/10/16 15:55:33;;;;;;;;;;;;;;;;;;4986772;28;89974;-68
2023/10/16 15:57:59;;;;;;;;;;;;;;;;;;4986763;28;89638;-66
2023/10/16 16:00:27;;;;;;;;;;;;;;;;;;4986132;28;90137;-66
2023/10/16 16:02:58;;;;;;;;;;;;;;;;;;4986411;28;90044;-68
2023/10/16 16:05:27;;;;;;;;;;;;;;;;;;4989404;28;90743;-68
2023/10/16 16:07:52;;;;;;;;;;;;;;;;;;4984888;28;90463;-66
2023/10/16 16:10:18;;;;;;;;;;;;;;;;;;4985199;28;89839;-65
2023/10/16 16:12:44;;;;;;;;;;;;;;;;;;4986065;28;90686;-66
2023/10/16 16:15:11;;;;;;;;;;;;;;;;;;4984501;28;90340;-66
2023/10/16 16:17:37;;;;;;;;;;;;;;;;;;4985444;28;89035;-66
2023/10/16 16:20:02;;;;;;;;;;;;;;;;;;4984882;28;89660;-71
2023/10/16 16:22:27;;;;;;;;;;;;;;;;;;4984843;28;90693;-67
2023/10/16 16:24:53;;;;;;;;;;;;;;;;;;4984355;28;89642;-68
2023/10/16 16:27:19;;;;;;;;;;;;;;;;;;4988209;28;89820;-69
2023/10/16 16:29:44;;;;;;;;;;;;;;;;;;4984008;28;89795;-74
2023/10/16 16:32:09;;;;;;;;;;;;;;;;;;4984035;28;90103;-70
2023/10/16 16:34:35;;;;;;;;;;;;;;;;;;4985066;28;90203;-73
2023/10/16 16:37:00;;;;;;;;;;;;;;;;;;4985250;28;90178;-71
2023/10/16 16:39:32;;;;;;;;;;;;;;;;;;4985510;28;89852;-75
2023/10/16 16:41:59;;;;;;;;;;;;;;;;;;4985164;28;90179;-70
2023/10/16 16:44:24;;;;;;;;;;;;;;;;;;4985305;28;89611;-75
2023/10/16 16:46:49;;;;;;;;;;;;;;;;;;4985536;28;90158;-75
2023/10/16 16:49:15;;;;;;;;;;;;;;;;;;4984505;28;89203;-70
2023/10/16 16:51:42;;;;;;;;;;;;;;;;;;4984179;28;89771;-69
2023/10/16 16:54:07;;;;;;;;;;;;;;;;;;4984808;28;89865;-68
2023/10/16 16:56:35;;;;;;;;;;;;;;;;;;4984246;28;90022;-71
2023/10/16 16:59:01;;;;;;;;;;;;;;;;;;4984555;28;89940;-75
2023/10/16 17:01:26;;;;;;;;;;;;;;;;;;4984510;28;90231;-70
2023/10/16 17:03:53;;;;;;;;;;;;;;;;;;4984338;28;89353;-68
2023/10/16 17:06:19;;;;;;;;;;;;;;;;;;4979713;28;89483;-67
2023/10/16 17:08:44;;;;;;;;;;;;;;;;;;4987013;28;89654;-67
2023/10/16 17:11:13;;;;;;;;;;;;;;;;;;4985149;28;89426;-69
2023/10/16 17:13:39;;;;;;;;;;;;;;;;;;4984123;28;89423;-68
2023/10/16 17:16:04;;;;;;;;;;;;;;;;;;4985311;28;89681;-67
2023/10/16 17:18:30;;;;;;;;;;;;;;;;;;4984518;28;90779;-67
2023/10/16 17:21:03;;;;;;;;;;;;;;;;;;4983346;28;90339;-69
2023/10/16 17:23:28;;;;;;;;;;;;;;;;;;4984774;28;89689;-68
2023/10/16 17:25:54;;;;;;;;;;;;;;;;;;4984072;28;89744;-72
2023/10/16 17:28:19;;;;;;;;;;;;;;;;;;4979781;28;91064;-77
2023/10/16 17:30:45;;;;;;;;;;;;;;;;;;4987265;28;89729;-70
2023/10/16 17:33:11;;;;;;;;;;;;;;;;;;4983349;28;90238;-75
2023/10/16 17:35:38;;;;;;;;;;;;;;;;;;4984989;28;89215;-69
2023/10/16 17:38:03;;;;;;;;;;;;;;;;;;4984816;28;90757;-75
2023/10/16 17:40:29;;;;;;;;;;;;;;;;;;4984833;28;89486;-70
2023/10/16 17:42:55;;;;;;;;;;;;;;;;;;4984058;28;89842;-67
2023/10/16 17:45:20;;;;;;;;;;;;;;;;;;4983568;28;90744;-71
2023/10/16 17:47:45;;;;;;;;;;;;;;;;;;4966278;28;90420;-68
2023/10/16 17:50:10;;;;;;;;;;;;;;;;;;4984214;28;89178;-67
2023/10/16 17:52:36;;;;;;;;;;;;;;;;;;4985519;28;89130;-72
2023/10/16 17:55:03;;;;;;;;;;;;;;;;;;4984844;28;89595;-70
2023/10/16 17:57:29;;;;;;;;;;;;;;;;;;4984857;28;90689;-68
2023/10/16 17:59:54;;;;;;;;;;;;;;;;;;4983904;28;90516;-72
2023/10/16 18:02:20;;;;;;;;;;;;;;;;;;4984800;28;90815;-68
2023/10/16 18:04:45;;;;;;;;;;;;;;;;;;4982360;28;90555;-70
2023/10/16 18:07:10;;;;;;;;;;;;;;;;;;4985188;28;90212;-70
2023/10/16 18:09:36;;;;;;;;;;;;;;;;;;4984440;28;89258;-69
2023/10/16 18:12:05;;;;;;;;;;;;;;;;;;4983892;28;90884;-76
2023/10/16 18:14:30;;;;;;;;;;;;;;;;;;4986976;28;89636;-68
2023/10/16 18:17:02;;;;;;;;;;;;;;;;;;4981243;28;89397;-73
2023/10/16 18:19:28;;;;;;;;;;;;;;;;;;4982604;28;89616;-72
2023/10/16 18:21:56;;;;;;;;;;;;;;;;;;4981942;28;89654;-73
2023/10/16 18:24:22;;;;;;;;;;;;;;;;;;4983082;28;89597;-67
2023/10/16 18:26:48;;;;;;;;;;;;;;;;;;4985693;28;90237;-68
2023/10/16 18:29:13;;;;;;;;;;;;;;;;;;4983116;28;89215;-72
2023/10/16 18:31:39;;;;;;;;;;;;;;;;;;4983969;28;89415;-72
2023/10/16 18:34:06;;;;;;;;;;;;;;;;;;4985582;28;90838;-68
2023/10/16 18:36:32;;;;;;;;;;;;;;;;;;4990426;28;89547;-71
2023/10/16 18:38:57;;;;;;;;;;;;;;;;;;4984481;28;90155;-73
2023/10/16 18:41:24;;;;;;;;;;;;;;;;;;4986699;28;89844;-68
2023/10/16 18:43:50;;;;;;;;;;;;;;;;;;4985700;28;91626;-74
2023/10/16 18:46:16;;;;;;;;;;;;;;;;;;4969784;28;90357;-73
2023/10/16 18:48:43;;;;;;;;;;;;;;;;;;4987129;28;90068;-75
2023/10/16 18:51:08;;;;;;;;;;;;;;;;;;4986044;28;89414;-71
2023/10/16 18:53:33;;;;;;;;;;;;;;;;;;4985395;28;89413;-71
2023/10/16 18:55:59;;;;;;;;;;;;;;;;;;4988726;28;89368;-69
2023/10/16 18:58:24;;;;;;;;;;;;;;;;;;4985552;28;90665;-70
2023/10/16 19:00:49;;;;;;;;;;;;;;;;;;4986827;28;89043;-70
2023/10/16 19:03:14;;;;;;;;;;;;;;;;;;4985342;28;90318;-69
2023/10/16 19:05:40;;;;;;;;;;;;;;;;;;4986367;28;90671;-69